• Join FlightAware (Why Join?)
  • Login
  • US Flag 
01:07AM EST


 

Airport Tracker/Info


-or-


 

Live Flight TrackerFlight Track Log ✈ OPT332 ✈ 20-Sep-2013 ✈ KAIZ - KCHA

Flight Track Log - Related Links

Times and Time Zones

All times are in EDT time to prevent confusion due to time zone crossing. See the OPT332 flight status page for this flight to view local times or setup timezone preferences in your user account.

Time Position Orientation Groundspeed Altitude Reporting Facility
EDT Latitude Longitude Course Direction KTS MPH feet Rate Location/Type
12:18PM 38.0472 -92.4900 113° Southeast 229 264 6,100  Level Kansas City Center
12:19PM 38.0333 -92.3931 100° East 255 293 9,100 3,060 Climbing Kansas City Center
12:20PM 38.0156 -92.2833 102° East 294 338 12,500 3,120 Climbing Kansas City Center
12:21PM 37.9956 -92.1550 101° East 320 368 15,600 2,760 Climbing Kansas City Center
12:22PM 37.9742 -92.0214 101° East 354 407 18,300 2,460 Climbing Kansas City Center
12:24PM 37.9539 -91.8969 102° East 358 412 20,700 1,920 Climbing Kansas City Center
12:25PM 37.9336 -91.7683 101° East 367 422 22,400 1,500 Climbing Kansas City Center
12:26PM 37.9122 -91.6356 102° East 379 436 23,800 1,260 Climbing Kansas City Center
12:27PM 37.8897 -91.4992 102° East 389 448 25,000 1,260 Climbing Kansas City Center
12:28PM 37.8667 -91.3594 102° East 400 460 26,500 960 Climbing Kansas City Center
12:29PM 37.8428 -91.2144 102° East 413 475 27,000 240 Climbing Kansas City Center
12:30PM 37.8147 -91.0500 102° East 440 506 27,000 720 Level Kansas City Center
12:31PM 37.7883 -90.8944 102° East 452 520 28,600 1,740 Climbing Kansas City Center
12:32PM 37.7569 -90.7183 103° East 435 501 30,700 1,680 Climbing Kansas City Center
12:33PM 37.7314 -90.5711 102° East 432 497 32,200 1,380 Climbing Kansas City Center
12:34PM 37.7050 -90.4217 103° East 437 503 33,600 1,200 Climbing Kansas City Center
12:35PM 37.6789 -90.2692 102° East 443 510 34,700 660 Climbing Kansas City Center
12:36PM 37.6261 -90.1239 115° Southeast 460 529 35,000 840 Climbing Kansas City Center
12:37PM 37.5611 -89.9642 117° Southeast 464 534 36,500 1,440 Climbing Kansas City Center
12:38PM 37.5033 -89.8192 117° Southeast 464 534 38,000 1,440 Climbing Kansas City Center
12:39PM 37.4444 -89.6769 118° Southeast 460 529 39,500 1,380 Climbing Kansas City Center
12:40PM 37.3875 -89.5378 117° Southeast 451 519 40,900 720 Climbing Kansas City Center
12:41PM 37.3167 -89.3731 118° Southeast 446 513 41,000  Climbing Kansas City Center
12:42PM 37.2708 -89.2622 117° Southeast 453 521 41,000  Level Memphis Center
12:43PM 37.2089 -89.1147 118° Southeast 464 534 41,000  Level Memphis Center
12:44PM 37.1469 -88.9697 118° Southeast 469 540 41,000  Level Memphis Center
12:45PM 37.0847 -88.8200 117° Southeast 469 540 41,000  Level Memphis Center
12:46PM 37.0139 -88.6578 119° Southeast 474 545 41,000  Level Memphis Center
12:47PM 36.9494 -88.5086 118° Southeast 474 545 41,000  Level Memphis Center
12:48PM 36.8844 -88.3569 118° Southeast 474 545 41,000  Level Memphis Center
12:49PM 36.8092 -88.2217 125° Southeast 479 551 41,000  Level Memphis Center
12:50PM 36.7406 -88.1017 125° Southeast 479 551 41,000  Level Memphis Center
12:51PM 36.6628 -87.9669 126° Southeast 479 551 41,000  Level Memphis Center
12:52PM 36.5808 -87.8219 125° Southeast 473 544 41,000  Level Memphis Center
12:53PM 36.5050 -87.6875 125° Southeast 473 544 41,000 -540 Level Memphis Center
12:54PM 36.4269 -87.5533 126° Southeast 473 544 40,000 -1,500 Descending Memphis Center
01:00PM 35.9652 -86.7547 126° Southeast 461 531 31,000 -1,560 Descending FlightAware ADS-B
01:00PM 35.9254 -86.6870 126° Southeast 456 525 30,200 -1,560 Descending FlightAware ADS-B
01:01PM 35.8738 -86.5992 126° Southeast 450 518 29,100 -1,500 Descending FlightAware ADS-B
01:02PM 35.7965 -86.4682 126° Southeast 450 518 27,600 -1,500 Descending FlightAware ADS-B
01:03PM 35.7592 -86.4053 126° Southeast 454 522 26,800 -1,560 Descending FlightAware ADS-B
01:04PM 35.6943 -86.2957 126° Southeast 450 518 25,500 -1,500 Descending FlightAware ADS-B
01:04PM 35.6575 -86.2339 126° Southeast 440 506 24,800 -1,500 Descending FlightAware ADS-B
01:05PM 35.6213 -86.1731 126° Southeast 438 504 24,000 -1,800 Descending FlightAware ADS-B
01:05PM 35.5803 -86.1044 126° Southeast 435 501 22,900 -1,980 Descending FlightAware ADS-B
01:06PM 35.5446 -86.0446 126° Southeast 430 495 21,900 -2,100 Descending FlightAware ADS-B
01:06PM 35.5091 -85.9854 126° Southeast 421 484 20,800 -2,580 Descending FlightAware ADS-B
01:07PM 35.4744 -85.9276 126° Southeast 406 467 19,300 -3,180 Descending FlightAware ADS-B
01:07PM 35.4413 -85.8725 126° Southeast 387 445 17,600 -3,720 Descending FlightAware ADS-B
01:08PM 35.3902 -85.7877 126° Southeast 381 438 14,400 -4,080 Descending FlightAware ADS-B
01:08PM 35.3601 -85.7377 126° Southeast 357 411 12,300 -2,700 Descending FlightAware ADS-B
01:09PM 35.3119 -85.6578 126° Southeast 353 406 10,700 -2,340 Descending FlightAware ADS-B
01:10PM 35.2811 -85.6070 127° Southeast 296 341 8,800 -3,120 Descending FlightAware ADS-B
01:16PM 35.0333 -85.2000 112° Southeast  Level FlightAware Approximate
01:17PM 35.0352 -85.2036 112° Southeast  Level Estimated
01:18PM 35.0333 -85.2000 112° Southeast  Level FlightAware Approximate
01:19PM 35.0352 -85.2036 112° Southeast  Level Estimated
01:20PM 35.0333 -85.2000 112° Southeast  Level FlightAware Approximate
01:21PM 35.0352 -85.2036 112° Southeast  Level Estimated
01:22PM 35.0333 -85.2000 112° Southeast  Level FlightAware Approximate
01:23PM 35.0352 -85.2036 112° Southeast  Level Estimated
01:24PM 35.0333 -85.2000 112° Southeast  Level FlightAware Approximate
01:25PM 35.0352 -85.2036 112° Southeast  Level Estimated